2017/03/30 06:00 VVNB 300600Z 14005KT 100V190 7000 BKN025 28/24 Q1013 NOSIG
2017/03/30 06:00 VVDN 300600Z 08007KT 050V120 5000 BR FEW013 BKN060 30/24 Q1014 NOSIG
2017/03/30 06:00 VVTS 300600Z 17003KT 9999 VCSH SCT015 FEW017CB 34/23 Q1010 TEMPO FM0620 TL0650 12015G26KT 3000 TSRA
2017/03/30 06:00 VVPB 300600Z 34005KT 9999 SCT017 SCT070 29/24 Q1014 NOSIG

Powered by MinhViet JSC.